Time;durP1;ratioP1;P1;durP2;ratioP2;P2;SDS_P1;SDS_P2;PMS_P1;PMS_P2;Temp;Humidity;BMP_temperature;BMP_pressure;BME280_temperature;BME280_humidity;BME280_pressure;Samples;Min_cycle;Max_cycle;Signal;HPM_P1;HPM_P2
2023/10/22 00:01:14;;;;;;;4.05;1.08;;;;;;;12.47;95.03;99598.91;5014151;28;20601;-68
2023/10/22 00:03:39;;;;;;;3.53;1.08;;;;;;;12.48;95.27;99611.19;5016592;28;20132;-68
2023/10/22 00:06:05;;;;;;;4.57;0.90;;;;;;;12.46;95.56;99605.25;5012518;28;20030;-68
2023/10/22 00:08:30;;;;;;;3.35;1.10;;;;;;;12.46;95.71;99607.09;5019110;28;20084;-68
2023/10/22 00:10:55;;;;;;;3.28;1.00;;;;;;;12.45;95.83;99608.94;5016592;28;20044;-68
2023/10/22 00:13:21;;;;;;;3.45;1.08;;;;;;;12.49;95.59;99614.66;5018875;28;20041;-68
2023/10/22 00:15:47;;;;;;;4.35;1.20;;;;;;;12.48;95.60;99616.50;5030365;28;20029;-68
2023/10/22 00:18:12;;;;;;;4.35;1.10;;;;;;;12.46;95.42;99615.91;5019172;28;20033;-68
2023/10/22 00:20:38;;;;;;;1.92;0.90;;;;;;;12.50;95.68;99622.44;5019731;28;20034;-68
2023/10/22 00:23:03;;;;;;;4.32;1.00;;;;;;;12.50;95.16;99627.75;5018514;28;20476;-68
2023/10/22 00:25:28;;;;;;;2.80;1.10;;;;;;;12.53;95.26;99632.66;5029501;28;20035;-68
2023/10/22 00:27:55;;;;;;;2.33;0.93;;;;;;;12.50;95.30;99629.59;5021977;28;20029;-68
2023/10/22 00:30:20;;;;;;;4.55;1.10;;;;;;;12.51;95.25;99631.25;5022022;28;20022;-68
2023/10/22 00:32:46;;;;;;;5.28;1.50;;;;;;;12.53;95.11;99627.34;5027875;28;20037;-68
2023/10/22 00:35:12;;;;;;;2.85;1.08;;;;;;;12.56;95.14;99642.88;5027737;28;20036;-68
2023/10/22 00:37:37;;;;;;;6.60;1.30;;;;;;;12.57;94.63;99636.53;5023383;28;20037;-68
2023/10/22 00:40:03;;;;;;;4.13;1.20;;;;;;;12.55;94.86;99648.41;5025608;28;20450;-68
2023/10/22 00:42:29;;;;;;;3.83;1.20;;;;;;;12.63;94.39;99645.50;5016367;28;20087;-68
2023/10/22 00:44:54;;;;;;;2.13;1.02;;;;;;;12.64;93.95;99650.63;5030335;28;20103;-68
2023/10/22 00:47:19;;;;;;;5.05;1.20;;;;;;;12.64;94.21;99653.28;5032128;28;20423;-68
2023/10/22 00:49:45;;;;;;;2.90;1.05;;;;;;;12.64;94.00;99671.09;5020708;28;20104;-68
2023/10/22 00:52:11;;;;;;;2.97;0.90;;;;;;;12.70;93.42;99659.59;5032487;28;20035;-68
2023/10/22 00:54:37;;;;;;;3.15;1.33;;;;;;;12.71;92.98;99664.72;5014987;28;20029;-68
2023/10/22 00:57:03;;;;;;;3.90;1.33;;;;;;;12.63;93.00;99656.97;5014933;28;20034;-68
2023/10/22 00:59:28;;;;;;;3.08;1.10;;;;;;;12.75;92.75;99675.78;5016859;28;20063;-68
2023/10/22 01:01:53;;;;;;;3.08;1.02;;;;;;;12.77;92.58;99673.72;5029860;28;20026;-68
2023/10/22 01:04:19;;;;;;;3.35;1.20;;;;;;;12.79;92.31;99670.84;5023081;28;20091;-68
2023/10/22 01:06:45;;;;;;;4.18;1.10;;;;;;;12.74;92.08;99670.66;5016384;28;20037;-68
2023/10/22 01:09:11;;;;;;;3.35;1.17;;;;;;;12.81;91.98;99679.44;5013781;28;20057;-68
2023/10/22 01:11:54;;;;;;;4.03;1.10;;;;;;;12.79;91.67;99686.81;5024533;28;20045;-68
2023/10/22 01:14:19;;;;;;;5.05;1.15;;;;;;;12.85;91.53;99699.28;5021924;28;20034;-68
2023/10/22 01:16:44;;;;;;;2.53;1.20;;;;;;;12.84;91.34;99698.47;5011954;28;20125;-68
2023/10/22 01:19:10;;;;;;;2.42;1.02;;;;;;;12.79;91.77;99697.47;5013115;28;20022;-68
2023/10/22 01:21:35;;;;;;;3.72;1.27;;;;;;;12.70;92.42;99702.22;5018815;28;20029;-68
2023/10/22 01:24:00;;;;;;;6.22;1.35;;;;;;;12.53;93.18;99701.91;5027446;28;20731;-68
2023/10/22 01:26:25;;;;;;;2.67;1.15;;;;;;;12.37;94.39;99705.00;5029553;28;20657;-69
2023/10/22 01:28:51;;;;;;;4.95;1.42;;;;;;;12.17;95.86;99721.06;5023597;28;20029;-70
2023/10/22 01:31:16;;;;;;;6.70;1.70;;;;;;;12.02;97.43;99718.63;5026704;28;20022;-69
2023/10/22 01:33:42;;;;;;;5.18;1.45;;;;;;;11.92;98.69;99715.56;5024494;28;20045;-69
2023/10/22 01:36:07;;;;;;;4.22;1.30;;;;;;;11.86;99.51;99723.56;5022140;28;20078;-69
2023/10/22 01:38:32;;;;;;;4.25;1.75;;;;;;;11.77;100.00;99721.06;5021873;28;20504;-69
2023/10/22 01:40:57;;;;;;;5.78;1.60;;;;;;;11.83;100.00;99724.78;5015333;28;20037;-70
2023/10/22 01:43:23;;;;;;;3.25;1.40;;;;;;;11.81;100.00;99739.31;5013367;28;20066;-70
2023/10/22 01:45:48;;;;;;;4.00;1.40;;;;;;;11.86;100.00;99745.66;5018639;28;20083;-70
2023/10/22 01:48:13;;;;;;;4.65;1.50;;;;;;;11.85;100.00;99741.34;5028708;28;20021;-69
2023/10/22 01:50:39;;;;;;;4.25;1.50;;;;;;;11.72;100.00;99736.00;5028153;28;20545;-70
2023/10/22 01:53:04;;;;;;;3.63;1.50;;;;;;;11.64;100.00;99739.69;5013762;28;20049;-70
2023/10/22 01:55:29;;;;;;;4.38;1.90;;;;;;;11.60;100.00;99761.59;5016250;28;20018;-70
2023/10/22 01:57:55;;;;;;;2.97;1.50;;;;;;;11.48;100.00;99753.38;5019014;28;20761;-70
2023/10/22 02:00:20;;;;;;;6.40;1.80;;;;;;;11.39;100.00;99759.91;5018172;28;20092;-70
2023/10/22 02:02:46;;;;;;;4.53;1.80;;;;;;;11.29;100.00;99757.66;5026316;28;20515;-70
2023/10/22 02:05:11;;;;;;;7.53;2.22;;;;;;;11.28;100.00;99761.34;5016418;28;20060;-69
2023/10/22 02:07:40;;;;;;;5.45;1.75;;;;;;;11.19;100.00;99762.53;5019903;28;20021;-69
2023/10/22 02:10:06;;;;;;;6.88;2.10;;;;;;;11.17;100.00;99775.19;5021763;28;20387;-70
2023/10/22 02:12:31;;;;;;;6.13;2.10;;;;;;;11.13;100.00;99777.44;5025989;28;20048;-70
2023/10/22 02:14:57;;;;;;;6.57;2.17;;;;;;;11.09;100.00;99786.00;5032090;28;20060;-70
2023/10/22 02:17:22;;;;;;;4.95;2.17;;;;;;;11.01;100.00;99784.38;5029083;28;20502;-70
2023/10/22 02:19:47;;;;;;;5.15;2.08;;;;;;;11.05;100.00;99790.09;5022731;28;20604;-69
2023/10/22 02:22:15;;;;;;;6.82;2.20;;;;;;;10.99;100.00;99804.19;5017091;28;20514;-70
2023/10/22 02:24:40;;;;;;;7.43;2.28;;;;;;;10.93;100.00;99796.97;5021545;28;20025;-70
2023/10/22 02:27:06;;;;;;;6.60;2.25;;;;;;;10.98;100.00;99813.13;5016900;28;20036;-69
2023/10/22 02:29:31;;;;;;;5.95;2.42;;;;;;;10.98;100.00;99819.28;5030942;28;20029;-70
2023/10/22 02:31:56;;;;;;;7.07;2.40;;;;;;;10.92;100.00;99803.31;5020274;28;20037;-69
2023/10/22 02:34:22;;;;;;;5.93;2.22;;;;;;;10.95;100.00;99824.16;5028840;28;20029;-70
2023/10/22 02:36:47;;;;;;;6.88;2.63;;;;;;;10.97;100.00;99830.09;5030198;28;20091;-69
2023/10/22 02:39:12;;;;;;;6.55;2.42;;;;;;;10.98;100.00;99831.72;5015488;28;20030;-70
2023/10/22 02:41:37;;;;;;;7.47;2.70;;;;;;;11.00;100.00;99832.38;5017742;28;20026;-69
2023/10/22 02:44:04;;;;;;;8.15;2.60;;;;;;;11.06;100.00;99839.56;5016173;28;20108;-69
2023/10/22 02:46:29;;;;;;;6.75;2.38;;;;;;;11.09;100.00;99829.34;5024411;28;20029;-69
2023/10/22 02:48:55;;;;;;;10.73;2.47;;;;;;;11.16;100.00;99847.97;5023185;28;20036;-69
2023/10/22 02:51:22;;;;;;;6.85;2.63;;;;;;;11.18;100.00;99853.91;5025630;28;20087;-69
2023/10/22 02:53:47;;;;;;;8.48;3.20;;;;;;;11.16;100.00;99863.91;5032182;28;20112;-69
2023/10/22 02:56:12;;;;;;;9.68;2.75;;;;;;;11.14;100.00;99868.59;5025804;28;20018;-69
2023/10/22 02:58:38;;;;;;;6.95;2.80;;;;;;;11.13;100.00;99867.78;5015234;28;20044;-69
2023/10/22 03:01:08;;;;;;;6.88;2.42;;;;;;;11.11;100.00;99887.59;5027283;28;20105;-70
2023/10/22 03:03:41;;;;;;;5.43;2.60;;;;;;;11.06;100.00;99879.41;5023205;28;20061;-69
2023/10/22 03:06:08;;;;;;;6.85;2.72;;;;;;;11.06;100.00;99896.16;5025395;28;20511;-69
2023/10/22 03:08:34;;;;;;;9.95;3.08;;;;;;;11.08;100.00;99890.66;5022365;28;20026;-69
2023/10/22 03:11:00;;;;;;;7.25;2.65;;;;;;;11.05;100.00;99881.25;5031297;28;20080;-70
2023/10/22 03:13:26;;;;;;;8.65;3.30;;;;;;;11.14;100.00;99895.19;5015824;28;20053;-69
2023/10/22 03:15:51;;;;;;;7.28;3.25;;;;;;;11.18;100.00;99907.88;5026010;28;20021;-69
2023/10/22 03:18:16;;;;;;;6.90;3.05;;;;;;;11.21;100.00;99909.31;5028035;28;20033;-69
2023/10/22 03:20:42;;;;;;;7.50;3.08;;;;;;;11.23;100.00;99919.75;5019652;28;20109;-69
2023/10/22 03:23:08;;;;;;;8.90;2.97;;;;;;;11.20;100.00;99917.47;5022270;28;20029;-69
2023/10/22 03:25:34;;;;;;;5.43;2.90;;;;;;;11.23;100.00;99933.84;5020812;28;20505;-69
2023/10/22 03:28:00;;;;;;;5.57;2.92;;;;;;;11.20;100.00;99928.09;5015329;28;20609;-69
2023/10/22 03:30:26;;;;;;;7.57;2.83;;;;;;;11.27;100.00;99950.22;5028347;28;20017;-69
2023/10/22 03:32:51;;;;;;;6.63;3.40;;;;;;;11.26;100.00;99949.41;5010728;28;20641;-69
2023/10/22 03:35:16;;;;;;;6.78;3.17;;;;;;;11.27;100.00;99953.69;5015786;28;20091;-69
2023/10/22 03:37:42;;;;;;;5.03;3.30;;;;;;;11.28;100.00;99967.84;5027179;28;20021;-69
2023/10/22 03:40:09;;;;;;;7.13;3.92;;;;;;;11.29;100.00;99969.47;5023936;28;20398;-69
2023/10/22 03:42:35;;;;;;;6.28;3.65;;;;;;;11.28;100.00;99971.31;5014531;28;20029;-69
2023/10/22 03:45:00;;;;;;;9.07;4.05;;;;;;;11.28;100.00;99986.44;5013415;28;20028;-69
2023/10/22 03:47:25;;;;;;;6.30;4.10;;;;;;;11.23;100.00;99981.69;5015751;28;20446;-68
2023/10/22 03:49:50;;;;;;;8.95;4.90;;;;;;;11.27;100.00;99990.09;5013279;28;20061;-69
2023/10/22 03:52:16;;;;;;;5.88;4.65;;;;;;;11.27;100.00;100001.53;5024258;28;20409;-68
2023/10/22 03:54:41;;;;;;;9.70;4.85;;;;;;;11.26;100.00;100005.22;5011592;28;20018;-69
2023/10/22 03:57:06;;;;;;;8.52;5.20;;;;;;;11.27;100.00;100011.34;5014824;28;20050;-68
2023/10/22 03:59:32;;;;;;;9.30;5.45;;;;;;;11.24;100.00;100009.09;5038518;28;20417;-68
2023/10/22 04:01:57;;;;;;;8.63;5.40;;;;;;;11.25;100.00;100019.50;5027668;28;20398;-68
2023/10/22 04:04:22;;;;;;;10.15;5.57;;;;;;;11.25;100.00;100031.97;5023602;28;20418;-68
2023/10/22 04:06:47;;;;;;;9.38;5.30;;;;;;;11.25;100.00;100035.47;5024089;28;20030;-68
2023/10/22 04:09:13;;;;;;;7.60;5.43;;;;;;;11.26;100.00;100038.94;5020914;28;20018;-68
2023/10/22 04:11:38;;;;;;;8.35;5.70;;;;;;;11.26;100.00;100044.25;5025781;28;20729;-68
2023/10/22 04:14:03;;;;;;;10.60;5.82;;;;;;;11.25;100.00;100048.75;5021459;28;20529;-68
2023/10/22 04:16:29;;;;;;;9.70;5.13;;;;;;;11.13;100.00;100027.22;5035728;28;20076;-68
2023/10/22 04:18:54;;;;;;;9.63;5.28;;;;;;;11.25;100.00;100062.03;5030766;28;20022;-68
2023/10/22 04:21:20;;;;;;;11.75;6.22;;;;;;;11.24;100.00;100064.91;5028765;28;20017;-68
2023/10/22 04:23:46;;;;;;;11.35;5.88;;;;;;;11.22;100.00;100058.94;5031209;28;20041;-69
2023/10/22 04:26:12;;;;;;;8.48;6.32;;;;;;;11.19;100.00;100070.78;5024699;28;20025;-68
2023/10/22 04:28:39;;;;;;;12.88;7.00;;;;;;;11.16;100.00;100060.56;5028998;28;20425;-68
2023/10/22 04:31:04;;;;;;;9.80;6.60;;;;;;;11.09;100.00;100068.47;5020563;28;20116;-68
2023/10/22 04:33:30;;;;;;;12.88;6.97;;;;;;;11.17;100.00;100081.63;5017246;28;20130;-68
2023/10/22 04:35:55;;;;;;;11.82;6.70;;;;;;;11.18;100.00;100091.25;5036048;28;20030;-68
2023/10/22 04:38:20;;;;;;;11.10;6.55;;;;;;;11.14;100.00;100084.66;5017643;28;20406;-68
2023/10/22 04:40:46;;;;;;;11.32;7.28;;;;;;;11.13;100.00;100079.53;5031391;28;20518;-68
2023/10/22 04:43:12;;;;;;;11.05;7.30;;;;;;;11.13;100.00;100090.19;5024542;28;20079;-68
2023/10/22 04:45:37;;;;;;;11.98;7.53;;;;;;;11.11;100.00;100092.22;5023556;28;20029;-68
2023/10/22 04:48:03;;;;;;;12.05;7.57;;;;;;;11.05;100.00;100092.97;5017186;28;20029;-68
2023/10/22 04:50:29;;;;;;;10.73;7.00;;;;;;;11.06;100.00;100099.94;5028855;28;20017;-68
2023/10/22 04:52:55;;;;;;;11.50;7.53;;;;;;;11.05;100.00;100104.44;5021557;28;20022;-68
2023/10/22 04:55:20;;;;;;;10.82;7.35;;;;;;;11.04;100.00;100105.44;5028032;28;20121;-68
2023/10/22 04:57:45;;;;;;;9.45;7.00;;;;;;;11.04;100.00;100115.25;5022592;28;20033;-68
2023/10/22 05:00:11;;;;;;;13.82;7.88;;;;;;;11.00;100.00;100125.44;5029164;28;20466;-68
2023/10/22 05:02:37;;;;;;;9.52;7.13;;;;;;;10.98;100.00;100126.63;5027966;28;20598;-68
2023/10/22 05:05:03;;;;;;;10.80;7.10;;;;;;;10.92;100.00;100122.91;5023498;28;20427;-68
2023/10/22 05:07:28;;;;;;;12.50;6.70;;;;;;;10.94;100.00;100122.69;5029720;28;20028;-68
2023/10/22 05:09:53;;;;;;;10.38;6.88;;;;;;;10.91;100.00;100129.22;5015473;28;20018;-68
2023/10/22 05:12:19;;;;;;;9.73;6.88;;;;;;;10.85;100.00;100130.81;5031667;28;20043;-68
2023/10/22 05:14:44;;;;;;;8.73;6.50;;;;;;;10.86;100.00;100140.41;5020476;28;20026;-68
2023/10/22 05:17:09;;;;;;;12.13;6.70;;;;;;;10.86;100.00;100143.06;5029339;28;20095;-68
2023/10/22 05:19:35;;;;;;;10.82;6.50;;;;;;;10.82;100.00;100149.78;5026104;28;20091;-68
2023/10/22 05:22:01;;;;;;;10.98;6.32;;;;;;;10.80;100.00;100158.94;5033050;28;20097;-68
2023/10/22 05:24:26;;;;;;;11.48;6.20;;;;;;;10.74;100.00;100155.22;5014655;28;20048;-68
2023/10/22 05:26:52;;;;;;;9.75;6.30;;;;;;;10.72;100.00;100165.22;5026115;28;20064;-68
2023/10/22 05:29:18;;;;;;;9.60;5.63;;;;;;;10.69;100.00;100168.22;5010396;28;20018;-68
2023/10/22 05:31:43;;;;;;;14.70;6.78;;;;;;;10.64;100.00;100173.28;5028756;28;20075;-68
2023/10/22 05:34:08;;;;;;;10.05;5.90;;;;;;;10.60;100.00;100181.81;5029294;28;20397;-68
2023/10/22 05:36:34;;;;;;;9.65;5.70;;;;;;;10.52;100.00;100193.34;5012865;28;20014;-68
2023/10/22 05:39:00;;;;;;;10.05;6.07;;;;;;;10.47;100.00;100187.78;5017778;28;20034;-68
2023/10/22 05:41:27;;;;;;;8.98;5.75;;;;;;;10.48;100.00;100194.75;5018401;28;20093;-68
2023/10/22 05:43:56;;;;;;;10.73;5.95;;;;;;;10.45;100.00;100198.59;5017966;28;20060;-68
2023/10/22 05:46:28;;;;;;;11.80;5.32;;;;;;;10.44;100.00;100201.44;5023574;28;20032;-68
2023/10/22 05:48:54;;;;;;;9.77;5.30;;;;;;;10.38;100.00;100204.81;5026024;28;20018;-68
2023/10/22 05:51:19;;;;;;;13.02;5.30;;;;;;;10.33;100.00;100201.88;5019649;28;20380;-68
2023/10/22 05:53:45;;;;;;;9.70;5.22;;;;;;;10.27;100.00;100210.59;5024454;28;20105;-69
2023/10/22 05:56:10;;;;;;;7.60;4.78;;;;;;;10.25;100.00;100221.38;5020293;28;20028;-68
2023/10/22 05:58:36;;;;;;;11.70;5.80;;;;;;;10.20;100.00;100215.78;5021254;28;20437;-68
2023/10/22 06:01:02;;;;;;;11.43;5.18;;;;;;;10.18;100.00;100220.44;5024888;28;20029;-68
2023/10/22 06:03:28;;;;;;;7.00;4.70;;;;;;;10.13;100.00;100228.16;5030941;28;20021;-68
2023/10/22 06:05:53;;;;;;;8.02;4.65;;;;;;;10.12;100.00;100226.47;5034146;28;20043;-68
2023/10/22 06:08:18;;;;;;;6.57;4.55;;;;;;;10.11;100.00;100227.47;5025028;28;20030;-67
2023/10/22 06:10:46;;;;;;;7.75;4.03;;;;;;;10.10;100.00;100239.09;5029821;28;20024;-68
2023/10/22 06:13:12;;;;;;;6.53;4.20;;;;;;;10.09;100.00;100248.06;5026778;28;20052;-68
2023/10/22 06:15:42;;;;;;;7.78;4.45;;;;;;;10.05;100.00;100244.94;5016850;28;20053;-68
2023/10/22 06:18:07;;;;;;;9.52;4.50;;;;;;;10.02;100.00;100255.94;5020745;28;20033;-68
2023/10/22 06:20:33;;;;;;;7.68;4.65;;;;;;;9.90;100.00;100252.91;5017876;28;20025;-68
2023/10/22 06:22:59;;;;;;;6.72;4.20;;;;;;;9.96;100.00;100267.25;5020718;28;20021;-68
2023/10/22 06:25:25;;;;;;;6.20;4.18;;;;;;;9.92;100.00;100272.09;5018806;28;20075;-68
2023/10/22 06:27:51;;;;;;;10.00;4.47;;;;;;;9.89;100.00;100280.44;5022067;28;20581;-68
2023/10/22 06:30:22;;;;;;;6.22;4.10;;;;;;;9.87;100.00;100286.91;5015605;28;20426;-68
2023/10/22 06:32:49;;;;;;;9.02;4.50;;;;;;;9.85;100.00;100289.75;5016593;28;20032;-68
2023/10/22 06:35:14;;;;;;;8.48;4.22;;;;;;;9.82;100.00;100295.38;5016600;28;20021;-68
2023/10/22 06:37:39;;;;;;;8.13;4.20;;;;;;;9.82;100.00;100300.69;5018156;28;20483;-67
2023/10/22 06:40:07;;;;;;;8.20;3.90;;;;;;;9.80;100.00;100304.53;5015507;28;20108;-68
2023/10/22 06:42:33;;;;;;;9.82;4.22;;;;;;;9.81;100.00;100311.47;5023299;28;20051;-67
2023/10/22 06:44:59;;;;;;;8.05;3.95;;;;;;;9.79;100.00;100321.44;5015994;28;20057;-67
2023/10/22 06:47:24;;;;;;;10.02;4.28;;;;;;;9.78;100.00;100323.28;5017315;28;20566;-67
2023/10/22 06:49:49;;;;;;;8.60;3.95;;;;;;;9.78;100.00;100327.75;5014574;28;20105;-68
2023/10/22 06:52:14;;;;;;;8.10;3.88;;;;;;;9.77;100.00;100331.41;5014949;28;20072;-68
2023/10/22 06:54:40;;;;;;;8.48;3.90;;;;;;;9.76;100.00;100332.41;5023900;28;20017;-69
2023/10/22 06:57:05;;;;;;;8.35;3.78;;;;;;;9.70;100.00;100328.66;5014552;28;20408;-69
2023/10/22 06:59:30;;;;;;;5.70;3.90;;;;;;;9.68;100.00;100332.47;5033713;28;20021;-68
2023/10/22 07:01:56;;;;;;;9.65;3.80;;;;;;;9.37;100.00;100290.13;5013286;28;20025;-68
2023/10/22 07:04:21;;;;;;;8.95;3.90;;;;;;;9.67;100.00;100341.44;5016663;28;20031;-68
2023/10/22 07:06:46;;;;;;;7.78;3.60;;;;;;;9.74;100.00;100358.28;5016117;28;20434;-68
2023/10/22 07:09:12;;;;;;;9.68;3.72;;;;;;;9.72;100.00;100360.28;5015861;28;20524;-68
2023/10/22 07:11:38;;;;;;;5.95;3.65;;;;;;;9.73;100.00;100365.41;5018071;28;20445;-68
2023/10/22 07:14:04;;;;;;;9.80;3.70;;;;;;;9.71;100.00;100362.09;5021594;28;20017;-68
2023/10/22 07:16:30;;;;;;;9.13;3.95;;;;;;;9.73;100.00;100372.53;5016188;28;20087;-68
2023/10/22 07:18:55;;;;;;;9.10;3.67;;;;;;;9.75;100.00;100375.84;5013016;28;20628;-70
2023/10/22 07:21:20;;;;;;;9.60;3.72;;;;;;;9.75;100.00;100381.97;5019309;28;20017;-68
2023/10/22 07:23:46;;;;;;;8.70;3.60;;;;;;;9.76;100.00;100383.63;5019534;28;20029;-68
2023/10/22 07:26:11;;;;;;;8.73;3.90;;;;;;;9.81;100.00;100391.03;5018425;28;20402;-69
2023/10/22 07:28:41;;;;;;;6.75;3.53;;;;;;;9.83;100.00;100381.06;5024720;28;20075;-68
2023/10/22 07:31:06;;;;;;;9.35;3.42;;;;;;;9.94;100.00;100386.81;5023147;28;20059;-68
2023/10/22 07:33:32;;;;;;;9.70;3.70;;;;;;;10.04;100.00;100397.16;5022943;28;20049;-68
2023/10/22 07:36:03;;;;;;;7.55;3.60;;;;;;;10.15;100.00;100404.72;5028088;28;20105;-69
2023/10/22 07:38:31;;;;;;;7.57;3.38;;;;;;;10.29;100.00;100407.63;5015958;28;20051;-68
2023/10/22 07:40:57;;;;;;;8.48;3.30;;;;;;;10.43;100.00;100414.81;5025599;28;20017;-68
2023/10/22 07:43:24;;;;;;;5.63;3.15;;;;;;;10.54;100.00;100417.00;5016684;28;20446;-68
2023/10/22 07:45:49;;;;;;;7.03;3.13;;;;;;;10.65;100.00;100416.56;5015890;28;20026;-68
2023/10/22 07:48:15;;;;;;;7.65;3.10;;;;;;;10.72;100.00;100428.13;5014618;28;20025;-68
2023/10/22 07:50:40;;;;;;;5.60;2.90;;;;;;;10.78;100.00;100427.41;5026435;28;20112;-68
2023/10/22 07:53:05;;;;;;;8.60;2.90;;;;;;;10.83;100.00;100429.50;5024178;28;20025;-68
2023/10/22 07:55:31;;;;;;;10.48;2.92;;;;;;;10.66;100.00;100382.84;5029586;28;20083;-69
2023/10/22 07:57:56;;;;;;;5.25;2.78;;;;;;;10.96;100.00;100423.53;5018047;28;20053;-68
2023/10/22 08:00:21;;;;;;;8.45;2.85;;;;;;;11.04;100.00;100428.78;5008395;28;20018;-68
2023/10/22 08:02:46;;;;;;;9.90;2.75;;;;;;;11.05;100.00;100430.44;5012587;28;20429;-68
2023/10/22 08:05:12;;;;;;;8.20;2.60;;;;;;;11.15;100.00;100430.97;5025646;28;20014;-68
2023/10/22 08:07:37;;;;;;;5.63;2.20;;;;;;;11.08;100.00;100417.59;5021079;28;20104;-68
2023/10/22 08:10:02;;;;;;;5.93;2.63;;;;;;;11.27;100.00;100440.09;5028724;28;20052;-68
2023/10/22 08:12:28;;;;;;;5.80;2.25;;;;;;;11.32;100.00;100445.72;5022746;28;20668;-68
2023/10/22 08:14:53;;;;;;;3.92;2.40;;;;;;;11.35;100.00;100447.19;5013369;28;20407;-68
2023/10/22 08:17:18;;;;;;;5.50;2.50;;;;;;;11.42;100.00;100445.44;5024259;28;20029;-69
2023/10/22 08:19:44;;;;;;;4.28;2.35;;;;;;;11.45;100.00;100445.06;5021096;28;20021;-68
2023/10/22 08:22:09;;;;;;;6.97;2.53;;;;;;;11.50;100.00;100447.97;5019303;28;20446;-69
2023/10/22 08:24:34;;;;;;;6.85;2.47;;;;;;;11.52;100.00;100450.44;5020429;28;20024;-69
2023/10/22 08:27:00;;;;;;;7.05;2.70;;;;;;;11.59;100.00;100454.03;5022877;28;20025;-68
2023/10/22 08:29:26;;;;;;;5.65;2.88;;;;;;;11.64;100.00;100462.28;5019496;28;20022;-68
2023/10/22 08:31:51;;;;;;;8.10;3.10;;;;;;;11.64;100.00;100467.59;5012679;28;20036;-68
2023/10/22 08:34:16;;;;;;;9.63;2.85;;;;;;;11.70;100.00;100470.31;5023255;28;20022;-68
2023/10/22 08:36:42;;;;;;;8.13;2.67;;;;;;;11.71;100.00;100471.97;5018973;28;20074;-68
2023/10/22 08:39:09;;;;;;;6.75;2.50;;;;;;;11.73;100.00;100471.78;5013797;28;20025;-69
2023/10/22 08:41:41;;;;;;;5.93;2.92;;;;;;;11.76;100.00;100490.84;5025860;28;20032;-69
2023/10/22 08:44:06;;;;;;;6.13;3.25;;;;;;;11.72;100.00;100483.44;5011038;28;20578;-68
2023/10/22 08:46:34;;;;;;;7.13;3.17;;;;;;;11.81;100.00;100492.16;5010897;28;20089;-68
2023/10/22 08:49:05;;;;;;;6.90;3.00;;;;;;;11.84;100.00;100492.59;5011882;28;20026;-69
2023/10/22 08:51:30;;;;;;;7.72;3.33;;;;;;;11.85;100.00;100494.25;5023124;28;20502;-69
2023/10/22 08:53:56;;;;;;;8.90;3.58;;;;;;;11.87;100.00;100496.75;5018444;28;20025;-69
2023/10/22 08:56:21;;;;;;;8.45;4.05;;;;;;;11.88;100.00;100499.22;5022241;28;20112;-69
2023/10/22 08:58:47;;;;;;;11.15;4.03;;;;;;;11.91;100.00;100498.03;5017216;28;20649;-69
2023/10/22 09:01:12;;;;;;;9.52;4.40;;;;;;;11.92;100.00;100497.84;5014984;28;20010;-69
2023/10/22 09:03:37;;;;;;;8.65;4.95;;;;;;;11.94;100.00;100505.63;5019848;28;20483;-68
2023/10/22 09:06:05;;;;;;;11.40;4.78;;;;;;;11.99;100.00;100509.38;5018882;28;20026;-69
2023/10/22 09:08:42;;;;;;;8.38;5.40;;;;;;;12.02;100.00;100508.97;5028900;28;20450;-69
2023/10/22 09:11:25;;;;;;;7.45;4.15;;;;;;;12.09;100.00;100515.19;5020256;28;20028;-69
2023/10/22 09:13:50;;;;;;;10.30;4.28;;;;;;;12.12;100.00;100521.97;5014725;28;20054;-69
2023/10/22 09:16:30;;;;;;;6.72;3.80;;;;;;;12.18;100.00;100525.75;5011099;28;20079;-69
2023/10/22 09:18:55;;;;;;;;;;;;;;;12.25;100.00;100529.31;5021704;28;20022;-69
2023/10/22 09:21:21;;;;;;;7.32;3.20;;;;;;;12.15;100.00;100521.63;5022655;28;20583;-69
2023/10/22 09:24:05;;;;;;;5.63;2.90;;;;;;;12.26;100.00;100523.78;5032870;28;20029;-68
2023/10/22 09:26:49;;;;;;;7.63;3.15;;;;;;;12.31;100.00;100531.19;5013427;28;20030;-69
2023/10/22 09:29:15;;;;;;;5.40;2.78;;;;;;;12.33;100.00;100526.50;5011784;28;20026;-69
2023/10/22 09:31:54;;;;;;;7.20;3.20;;;;;;;12.40;100.00;100533.53;5024375;28;20017;-69
2023/10/22 09:34:27;;;;;;;6.25;3.30;;;;;;;12.43;100.00;100540.31;5022772;28;20025;-69
2023/10/22 09:36:56;;;;;;;8.35;3.47;;;;;;;12.22;100.00;100509.22;5021720;28;20091;-68
2023/10/22 09:39:42;;;;;;;12.17;3.97;;;;;;;12.46;100.00;100547.97;5023251;28;20739;-68
2023/10/22 09:42:09;;;;;;;6.97;3.38;;;;;;;12.48;100.00;100543.28;5013982;28;20872;-68
2023/10/22 09:44:35;;;;;;;7.05;3.80;;;;;;;12.53;100.00;100564.00;5026895;28;20039;-69
2023/10/22 09:47:03;;;;;;;7.63;3.53;;;;;;;12.48;100.00;100556.59;5024446;28;20025;-68
2023/10/22 09:49:30;;;;;;;7.15;3.92;;;;;;;12.53;100.00;100556.84;5021250;28;20116;-69
2023/10/22 09:51:58;;;;;;;7.85;3.90;;;;;;;12.54;100.00;100577.13;5027860;28;20550;-69
2023/10/22 09:54:33;;;;;;;8.63;4.28;;;;;;;12.53;100.00;100572.81;5020247;28;20022;-69
2023/10/22 09:57:12;;;;;;;7.05;4.63;;;;;;;12.51;100.00;100582.00;5033853;28;20034;-68
2023/10/22 09:59:39;;;;;;;8.00;4.90;;;;;;;12.49;100.00;100579.53;5026046;28;20060;-69
2023/10/22 10:02:04;;;;;;;8.45;5.28;;;;;;;12.51;100.00;100587.34;5010970;28;20271;-68
2023/10/22 10:04:33;;;;;;;9.20;5.20;;;;;;;12.54;100.00;100586.97;5029177;28;20126;-69
2023/10/22 10:07:01;;;;;;;9.68;5.70;;;;;;;12.59;100.00;100587.22;5027696;28;20026;-69
2023/10/22 10:09:27;;;;;;;6.97;5.93;;;;;;;12.61;100.00;100586.00;5017713;28;20018;-69
2023/10/22 10:11:54;;;;;;;14.93;6.60;;;;;;;12.64;100.00;100587.47;5025354;28;20126;-69
2023/10/22 10:14:38;;;;;;;9.50;6.35;;;;;;;12.71;100.00;100591.00;5014339;28;20018;-69
2023/10/22 10:17:04;;;;;;;8.05;6.55;;;;;;;12.73;100.00;100593.50;5024656;28;20029;-69
2023/10/22 10:19:29;;;;;;;10.15;6.95;;;;;;;12.79;100.00;100587.41;5022965;28;20510;-69
2023/10/22 10:21:55;;;;;;;9.20;7.20;;;;;;;12.87;100.00;100593.44;5024185;28;20478;-69
2023/10/22 10:24:25;;;;;;;12.57;7.38;;;;;;;12.91;100.00;100594.69;5009108;28;20026;-69
2023/10/22 10:27:12;;;;;;;10.77;7.57;;;;;;;12.98;100.00;100592.06;5027541;28;20037;-69
2023/10/22 10:29:39;;;;;;;11.57;7.80;;;;;;;13.04;100.00;100602.00;5012814;28;20030;-69
2023/10/22 10:32:13;;;;;;;10.20;7.45;;;;;;;13.06;100.00;100607.13;5010944;28;20029;-69
2023/10/22 10:34:45;;;;;;;8.20;7.35;;;;;;;13.03;100.00;100603.84;5028661;28;20033;-69
2023/10/22 10:37:21;;;;;;;10.50;7.05;;;;;;;13.09;100.00;100610.22;5009133;28;20032;-69
2023/10/22 10:39:51;;;;;;;9.68;6.88;;;;;;;13.13;99.96;100618.66;5015644;28;20080;-69
2023/10/22 10:42:29;;;;;;;11.02;6.90;;;;;;;13.15;99.75;100616.63;5019804;28;20026;-69
2023/10/22 10:44:54;;;;;;;10.38;7.43;;;;;;;13.15;99.66;100620.13;5009246;28;20086;-69
2023/10/22 10:47:22;;;;;;;10.93;6.55;;;;;;;13.12;99.37;100617.84;5015717;28;20108;-69
2023/10/22 10:50:06;;;;;;;14.02;6.80;;;;;;;13.09;98.57;100614.75;5021450;28;20079;-69
2023/10/22 10:52:34;;;;;;;7.97;7.03;;;;;;;13.08;98.31;100619.25;5018936;28;20030;-69
2023/10/22 10:55:06;;;;;;;10.43;6.13;;;;;;;13.10;98.79;100622.53;5019624;28;20075;-69
2023/10/22 10:57:40;;;;;;;9.25;5.93;;;;;;;13.05;98.16;100606.31;5023698;28;20022;-69
2023/10/22 11:00:09;;;;;;;8.82;5.72;;;;;;;13.08;97.92;100610.41;5014917;28;20295;-69
2023/10/22 11:02:43;;;;;;;8.38;5.00;;;;;;;13.09;97.13;100615.56;5020659;28;20028;-69
2023/10/22 11:05:09;;;;;;;8.40;4.97;;;;;;;13.09;96.80;100618.22;5017339;28;20041;-69
2023/10/22 11:07:36;;;;;;;6.85;4.38;;;;;;;13.04;96.22;100615.31;5010621;28;20030;-68
2023/10/22 11:10:14;;;;;;;7.13;4.75;;;;;;;13.08;95.95;100631.75;5020312;28;20487;-69
2023/10/22 11:12:40;;;;;;;9.30;5.35;;;;;;;13.01;96.18;100618.38;5020774;28;20104;-69
2023/10/22 11:15:08;;;;;;;6.93;4.72;;;;;;;13.07;96.03;100622.09;5021561;28;20029;-69
2023/10/22 11:17:34;;;;;;;5.30;4.03;;;;;;;12.96;94.97;100616.25;5027739;28;20389;-69
2023/10/22 11:19:59;;;;;;;6.97;4.05;;;;;;;13.07;94.50;100632.78;5022089;28;20293;-69